Terminal Aerodrome Forecast
Issued by NWS

Home | Current Version | Previous Version | Text Only | Print | Product List | Glossary On
Versions: 1 2 3 4 5 6 7 8 9 10 11 12 13 14 15 16 17 18 19 20
000
FTUS43 KEAX 080520
TAFSTJ
TAF
KSTJ 080520Z 0806/0906 05007KT P6SM OVC050
     FM081300 04009KT P6SM VCSH OVC015
     FM082000 05005KT P6SM BKN040=

USA.gov is the U.S. government's official web portal to all federal, state and local government web resources and services.